Airfield :
LOGIN :

Register | Disclaimer

   EN    FR    IT 

 










Legend :    VFR   Marginal VFR   IFR   Intensive IFR   Very Intensive IFR
Visi :
Ceiling :
>= 8 km
>= 3000ft
5 to 8 km
1000 to 3000 ft
1500m to 5 km
500 to 1000 ft
800 to 1500m
200 to 500 ft
< 800m
< 200 ft
Symbols :   Thunderstorms  Fog  Heavy snow  Heavy precipitations  Wind > 20 kt
SIGMETs :     Misc.  Thunderstorms  Icing  Turbulence  Mountain Waves  Volcanic Ashes







- Airport Elevation : 436 ft
- IATA code : BTS


LZIB - Bratislava

CURRENT METAR :
  • 251100Z 11006KT 070V150 9999 SCT028 BKN032 17/11 Q1023 NOSIG

EXPIRED METARs :
  • 251030Z 10006KT 060V150 9999 FEW014 BKN021 BKN095 16/11 Q1023 NOSIG
  • 251000Z 07004KT 020V120 9999 SCT012 SCT023 BKN095 15/11 Q1023 NOSIG
  • 250930Z 07003KT 040V110 9999 BKN010 BKN093 15/12 Q1023 NOSIG
  • 250900Z 10003KT 050V160 8000 BKN008 BKN019 14/12 Q1023 NOSIG
  • 250830Z VRB02KT 7000 BKN005 BKN027 14/12 Q1023 NOSIG

TAF TAF LZIB
Valid from the 25 at 06:00 until the 26 at 06:00 UTC


250500Z 2506/2606 06004KT 9999 FEW010 BKN080
TEMPO 2506/2507 5000 BR BKN003 BKN010
TEMPO 2512/2520 12006KT SCT033 SCT080
TEMPO 2600/2606 5000 BR BKN010
No reported NOTAMs for that airfield.



MET'MAP, your aeronautical weather chart ! - Copyright ORBIFLY December 2007 - Disclaimer

ORBIFLY MET'MAP TEAM :

Programming & Development : Alexandra Zaïnal
Concept & Development : Baudouin d'Aumeries
Co-Development & Prog : Marc-Olivier Méhu
Technical & hardware support : Manuel Goepfert

Contact : metmap@orbifly.com




SOURCES & CREDITS :

   NOAA